Sheng Jia 1 — XUGG7 — position and weather

sailwx.info

Track history (hours):
 
Tides and Currents Weather Stations Pressure Air Temp Water Temp Dewpoint Dewpoint Depression Visibility Wind Speed Wind Dir Waves Ship Positions

Sheng Jia 1

Last reported at 2014-Aug-15 20:25 UTC. Time now 2014-Aug-20 08:50 UTC.
Position N 34°49' E 139°10'.

Length 73 m; draft 4.2 m.

Type: Cargo ship. MMSI: 515744000.

Date/timePositionNaut miles runAvg speedWind from/ knotsBaromVisibWave heightAir tempDewpointWater temp
2014-Aug-15 20:25N 34°49' E 139°10'15 7.9
2014-Aug-15 18:28N 34°60' E 139°23'7 7.9
2014-Aug-15 17:32N 35°03' E 139°31'7 7.5
2014-Aug-15 16:33N 35°06' E 139°39'7 7.5
2014-Aug-15 15:33N 35°11' E 139°45'8 8.4
2014-Aug-15 14:34N 35°20' E 139°43'8 7.6
2014-Aug-15 13:33N 35°26' E 139°47'8 7.6
2014-Aug-15 12:33N 35°30' E 139°55'4 4.1
2014-Aug-15 11:29N 35°28' E 139°60'0 0.0
2014-Aug-15 10:26N 35°28' E 139°60'0 0.0
2014-Aug-15 09:29N 35°28' E 139°60'0 0.0
2014-Aug-15 08:29N 35°28' E 139°60'0 0.0
2014-Aug-15 07:29N 35°28' E 139°60'0 0.0
2014-Aug-15 06:32N 35°28' E 139°60'0 0.0
2014-Aug-15 05:29N 35°28' E 139°60'0 0.0
2014-Aug-15 04:29N 35°28' E 139°60'0 0.0
2014-Aug-15 03:29N 35°28' E 139°60'0 0.0
2014-Aug-15 02:32N 35°28' E 139°60'0 0.0
2014-Aug-15 01:29N 35°28' E 139°60'0 0.0
2014-Aug-15 00:33N 35°28' E 139°60'0 0.0
2014-Aug-14 23:33N 35°28' E 139°60'0 0.0
2014-Aug-14 22:30N 35°28' E 139°60'0 0.0
2014-Aug-14 21:30N 35°28' E 139°60'0 0.0
2014-Aug-14 20:33N 35°28' E 139°60'0 0.0
2014-Aug-14 19:33N 35°28' E 139°60'0 0.0
2014-Aug-14 18:21N 35°28' E 139°60'0 0.0
2014-Aug-14 17:27N 35°28' E 139°60'0 0.0
2014-Aug-14 16:30N 35°28' E 139°60'0 0.0
2014-Aug-14 15:27N 35°28' E 139°60'0 0.0
2014-Aug-14 14:33N 35°28' E 139°60'0 0.0
2014-Aug-14 13:33N 35°28' E 139°60'0 0.0
2014-Aug-14 12:33N 35°28' E 139°60'0 0.0
2014-Aug-14 11:33N 35°28' E 139°60'0 0.0
2014-Aug-14 10:30N 35°28' E 139°60'0 0.0
2014-Aug-14 09:21N 35°28' E 139°60'0 0.0
2014-Aug-14 08:33N 35°28' E 139°60'0 0.0
2014-Aug-14 07:33N 35°28' E 139°60'0 0.0
2014-Aug-14 06:33N 35°28' E 139°60'0 0.0
2014-Aug-14 05:33N 35°28' E 139°60'0 0.0
2014-Aug-14 04:27N 35°28' E 139°60'0 0.0
2014-Aug-14 03:33N 35°28' E 139°60'0 0.0
2014-Aug-14 02:33N 35°28' E 139°60'0 0.0
2014-Aug-14 01:30N 35°28' E 139°60'2 1.8
2014-Aug-14 00:33N 35°29' E 139°59'  
2014-Aug-10 03:04N 35°33' E 140°01'0 0.0
2014-Aug-10 02:31N 35°33' E 140°01'0 0.0
2014-Aug-10 01:10N 35°33' E 140°01'0 0.0
2014-Aug-10 00:33N 35°33' E 140°01'0 0.1
2014-Aug-09 23:30N 35°33' E 140°01'0 0.0
2014-Aug-09 22:33N 35°33' E 140°01'0 0.0
2014-Aug-09 21:27N 35°33' E 140°01'0 0.0
2014-Aug-09 20:30N 35°33' E 140°01'0 0.0
2014-Aug-09 19:30N 35°33' E 140°01'0 0.0
2014-Aug-09 18:21N 35°33' E 140°01'0 0.0
2014-Aug-09 17:24N 35°33' E 140°01'0 0.0
2014-Aug-09 16:30N 35°33' E 140°01'0 0.0
2014-Aug-09 15:27N 35°33' E 140°01'0 0.0
2014-Aug-09 14:33N 35°33' E 140°01'0 0.0
2014-Aug-09 13:33N 35°33' E 140°01'0 0.0
2014-Aug-09 12:33N 35°33' E 140°01'0 0.0
2014-Aug-09 11:31N 35°33' E 140°01'0 0.0
2014-Aug-09 10:31N 35°33' E 140°01'0 0.0
2014-Aug-09 09:31N 35°33' E 140°01'0 0.0
2014-Aug-09 08:25N 35°33' E 140°01'0 0.0
2014-Aug-09 07:28N 35°33' E 140°01'0 0.0
2014-Aug-09 06:22N 35°33' E 140°01'0 0.0
2014-Aug-09 05:31N 35°33' E 140°01'0 0.0
2014-Aug-09 04:34N 35°33' E 140°01'0 0.0
2014-Aug-09 03:31N 35°33' E 140°01'0 0.0
2014-Aug-09 02:32N 35°33' E 140°01'0 0.0
2014-Aug-09 01:32N 35°33' E 140°01'0 0.0
2014-Aug-09 00:32N 35°33' E 140°01'0 0.0
2014-Aug-08 23:32N 35°33' E 140°01'0 0.0
2014-Aug-08 22:32N 35°33' E 140°01'0 0.0
2014-Aug-08 21:32N 35°33' E 140°01'0 0.0
2014-Aug-08 20:32N 35°33' E 140°01'0 0.0
2014-Aug-08 19:26N 35°33' E 140°01'0 0.0
2014-Aug-08 18:29N 35°33' E 140°01'0 0.1
2014-Aug-08 17:32N 35°33' E 140°01'0 0.0
2014-Aug-08 16:29N 35°33' E 140°01'0 0.0
2014-Aug-08 15:32N 35°33' E 140°01'0 0.0
2014-Aug-08 14:26N 35°33' E 140°01'0 0.0
2014-Aug-08 13:32N 35°33' E 140°01'0 0.1
2014-Aug-08 12:32N 35°33' E 140°01'0 0.0
2014-Aug-08 11:32N 35°33' E 140°01'0 0.1
2014-Aug-08 10:32N 35°33' E 140°01'0 0.0
2014-Aug-08 09:23N 35°33' E 140°01'0 0.1
2014-Aug-08 08:29N 35°33' E 140°01'0 0.0
2014-Aug-08 07:29N 35°33' E 140°01'0 0.1
2014-Aug-08 06:31N 35°33' E 140°01'0 0.0
2014-Aug-08 05:28N 35°33' E 140°01'0 0.0
2014-Aug-08 04:31N 35°33' E 140°01'0 0.0
2014-Aug-08 03:25N 35°33' E 140°01'0 0.0
2014-Aug-08 02:33N 35°33' E 140°01'0 0.0
2014-Aug-08 01:33N 35°33' E 140°01'0 0.0
2014-Aug-08 00:33N 35°33' E 140°01'7 6.9
2014-Aug-07 23:33N 35°30' E 139°53'9 9.0
2014-Aug-07 22:33N 35°23' E 139°46'8 7.7
2014-Aug-07 21:33N 35°15' E 139°47'9 8.9
2014-Aug-07 20:33N 35°07' E 139°44'1010.1
2014-Aug-07 19:33N 35°00' E 139°35'1110.2
2014-Aug-07 18:28N 34°53' E 139°24'  
Track history (hours):
 
Tides and Currents Weather Stations Pressure Air Temp Water Temp Dewpoint Dewpoint Depression Visibility Wind Speed Wind Dir Waves Ship Positions

Sheng Jia 1

Last reported at 2014-Aug-15 20:25 UTC. Time now 2014-Aug-20 08:50 UTC.
Position N 34°49' E 139°10'.

Length 73 m; draft 4.2 m.

Type: Cargo ship. MMSI: 515744000.

Date/timePositionNaut miles runAvg speedWind from/ knotsBaromVisibWave heightAir tempDewpointWater temp
2014-Aug-15 20:25N 34°49' E 139°10'15 7.9
2014-Aug-15 18:28N 34°60' E 139°23'7 7.9
2014-Aug-15 17:32N 35°03' E 139°31'7 7.5
2014-Aug-15 16:33N 35°06' E 139°39'7 7.5
2014-Aug-15 15:33N 35°11' E 139°45'8 8.4
2014-Aug-15 14:34N 35°20' E 139°43'8 7.6
2014-Aug-15 13:33N 35°26' E 139°47'8 7.6
2014-Aug-15 12:33N 35°30' E 139°55'4 4.1
2014-Aug-15 11:29N 35°28' E 139°60'0 0.0
2014-Aug-15 10:26N 35°28' E 139°60'0 0.0
2014-Aug-15 09:29N 35°28' E 139°60'0 0.0
2014-Aug-15 08:29N 35°28' E 139°60'0 0.0
2014-Aug-15 07:29N 35°28' E 139°60'0 0.0
2014-Aug-15 06:32N 35°28' E 139°60'0 0.0
2014-Aug-15 05:29N 35°28' E 139°60'0 0.0
2014-Aug-15 04:29N 35°28' E 139°60'0 0.0
2014-Aug-15 03:29N 35°28' E 139°60'0 0.0
2014-Aug-15 02:32N 35°28' E 139°60'0 0.0
2014-Aug-15 01:29N 35°28' E 139°60'0 0.0
2014-Aug-15 00:33N 35°28' E 139°60'0 0.0
2014-Aug-14 23:33N 35°28' E 139°60'0 0.0
2014-Aug-14 22:30N 35°28' E 139°60'0 0.0
2014-Aug-14 21:30N 35°28' E 139°60'0 0.0
2014-Aug-14 20:33N 35°28' E 139°60'0 0.0
2014-Aug-14 19:33N 35°28' E 139°60'0 0.0
2014-Aug-14 18:21N 35°28' E 139°60'0 0.0
2014-Aug-14 17:27N 35°28' E 139°60'0 0.0
2014-Aug-14 16:30N 35°28' E 139°60'0 0.0
2014-Aug-14 15:27N 35°28' E 139°60'0 0.0
2014-Aug-14 14:33N 35°28' E 139°60'0 0.0
2014-Aug-14 13:33N 35°28' E 139°60'0 0.0
2014-Aug-14 12:33N 35°28' E 139°60'0 0.0
2014-Aug-14 11:33N 35°28' E 139°60'0 0.0
2014-Aug-14 10:30N 35°28' E 139°60'0 0.0
2014-Aug-14 09:21N 35°28' E 139°60'0 0.0
2014-Aug-14 08:33N 35°28' E 139°60'0 0.0
2014-Aug-14 07:33N 35°28' E 139°60'0 0.0
2014-Aug-14 06:33N 35°28' E 139°60'0 0.0
2014-Aug-14 05:33N 35°28' E 139°60'0 0.0
2014-Aug-14 04:27N 35°28' E 139°60'0 0.0
2014-Aug-14 03:33N 35°28' E 139°60'0 0.0
2014-Aug-14 02:33N 35°28' E 139°60'0 0.0
2014-Aug-14 01:30N 35°28' E 139°60'2 1.8
2014-Aug-14 00:33N 35°29' E 139°59'  
2014-Aug-10 03:04N 35°33' E 140°01'0 0.0
2014-Aug-10 02:31N 35°33' E 140°01'0 0.0
2014-Aug-10 01:10N 35°33' E 140°01'0 0.0
2014-Aug-10 00:33N 35°33' E 140°01'0 0.1
2014-Aug-09 23:30N 35°33' E 140°01'0 0.0
2014-Aug-09 22:33N 35°33' E 140°01'0 0.0
2014-Aug-09 21:27N 35°33' E 140°01'0 0.0
2014-Aug-09 20:30N 35°33' E 140°01'0 0.0
2014-Aug-09 19:30N 35°33' E 140°01'0 0.0
2014-Aug-09 18:21N 35°33' E 140°01'0 0.0
2014-Aug-09 17:24N 35°33' E 140°01'0 0.0
2014-Aug-09 16:30N 35°33' E 140°01'0 0.0
2014-Aug-09 15:27N 35°33' E 140°01'0 0.0
2014-Aug-09 14:33N 35°33' E 140°01'0 0.0
2014-Aug-09 13:33N 35°33' E 140°01'0 0.0
2014-Aug-09 12:33N 35°33' E 140°01'0 0.0
2014-Aug-09 11:31N 35°33' E 140°01'0 0.0
2014-Aug-09 10:31N 35°33' E 140°01'0 0.0
2014-Aug-09 09:31N 35°33' E 140°01'0 0.0
2014-Aug-09 08:25N 35°33' E 140°01'0 0.0
2014-Aug-09 07:28N 35°33' E 140°01'0 0.0
2014-Aug-09 06:22N 35°33' E 140°01'0 0.0
2014-Aug-09 05:31N 35°33' E 140°01'0 0.0
2014-Aug-09 04:34N 35°33' E 140°01'0 0.0
2014-Aug-09 03:31N 35°33' E 140°01'0 0.0
2014-Aug-09 02:32N 35°33' E 140°01'0 0.0
2014-Aug-09 01:32N 35°33' E 140°01'0 0.0
2014-Aug-09 00:32N 35°33' E 140°01'0 0.0
2014-Aug-08 23:32N 35°33' E 140°01'0 0.0
2014-Aug-08 22:32N 35°33' E 140°01'0 0.0
2014-Aug-08 21:32N 35°33' E 140°01'0 0.0
2014-Aug-08 20:32N 35°33' E 140°01'0 0.0
2014-Aug-08 19:26N 35°33' E 140°01'0 0.0
2014-Aug-08 18:29N 35°33' E 140°01'0 0.1
2014-Aug-08 17:32N 35°33' E 140°01'0 0.0
2014-Aug-08 16:29N 35°33' E 140°01'0 0.0
2014-Aug-08 15:32N 35°33' E 140°01'0 0.0
2014-Aug-08 14:26N 35°33' E 140°01'0 0.0
2014-Aug-08 13:32N 35°33' E 140°01'0 0.1
2014-Aug-08 12:32N 35°33' E 140°01'0 0.0
2014-Aug-08 11:32N 35°33' E 140°01'0 0.1
2014-Aug-08 10:32N 35°33' E 140°01'0 0.0
2014-Aug-08 09:23N 35°33' E 140°01'0 0.1
2014-Aug-08 08:29N 35°33' E 140°01'0 0.0
2014-Aug-08 07:29N 35°33' E 140°01'0 0.1
2014-Aug-08 06:31N 35°33' E 140°01'0 0.0
2014-Aug-08 05:28N 35°33' E 140°01'0 0.0
2014-Aug-08 04:31N 35°33' E 140°01'0 0.0
2014-Aug-08 03:25N 35°33' E 140°01'0 0.0
2014-Aug-08 02:33N 35°33' E 140°01'0 0.0
2014-Aug-08 01:33N 35°33' E 140°01'0 0.0
2014-Aug-08 00:33N 35°33' E 140°01'7 6.9
2014-Aug-07 23:33N 35°30' E 139°53'9 9.0
2014-Aug-07 22:33N 35°23' E 139°46'8 7.7
2014-Aug-07 21:33N 35°15' E 139°47'9 8.9
2014-Aug-07 20:33N 35°07' E 139°44'1010.1
2014-Aug-07 19:33N 35°00' E 139°35'1110.2
2014-Aug-07 18:28N 34°53' E 139°24'  

Dump ship's entire track history